CST,Max TemperatureF,Mean TemperatureF,Min TemperatureF,Max Dew PointF,MeanDew PointF,Min DewpointF,Max Humidity, Mean Humidity, Min Humidity, Max Sea Level PressureIn, Mean Sea Level PressureIn, Min Sea Level PressureIn, Max VisibilityMiles, Mean VisibilityMiles, Min VisibilityMiles, Max Wind SpeedMPH, Mean Wind SpeedMPH, Max Gust SpeedMPH,PrecipitationIn, CloudCover, Events, WindDirDegrees
2012-12-1,47,36,26,39,33,26,99,89,66,29.98,29.79,29.70,7,4,1,18,10,29,0.00,4,,184
2012-12-2,47,34,22,40,30,22,99,88,62,29.96,29.85,29.68,10,4,0,15,4,23,0.00,3,Fog,140
2012-12-3,50,42,35,46,37,25,99,77,57,29.94,29.68,29.52,10,8,1,24,15,31,0.00,3,,222
2012-12-4,37,24,11,25,14,8,85,68,49,30.38,30.19,29.94,10,10,10,16,10,23,0.00,0,,296
2012-12-5,41,28,15,28,17,11,82,62,48,30.38,30.08,29.76,10,10,10,21,10,31,0.00,2,,130
2012-12-6,43,31,19,32,25,16,91,72,56,30.01,29.86,29.73,10,10,10,17,10,24,0.00,3,Rain,263
2012-12-7,29,23,17,27,22,16,96,91,80,30.06,30.02,30.00,10,7,2,7,1,,0.00,6,Snow,352
2012-12-8,29,25,21,28,23,20,96,92,88,30.03,29.99,29.95,10,6,1,10,3,,0.03,8,Snow,115
2012-12-9,29,18,7,28,22,3,96,92,81,30.01,29.92,29.85,10,2,0,20,11,28,0.08,8,Snow,31
2012-12-10,8,-2,-11,3,-4,-16,85,78,68,30.00,29.91,29.78,10,10,7,10,6,16,0.00,2,Snow,274
2012-12-11,14,4,-5,10,1,-10,91,85,74,29.95,29.84,29.76,10,9,5,12,3,,0.00,3,Snow,266
2012-12-12,33,14,-4,25,17,-8,96,82,66,29.96,29.84,29.77,10,9,7,13,5,18,0.00,2,,144
2012-12-13,28,16,5,23,17,3,97,89,76,30.11,30.00,29.87,10,6,0,9,2,,0.00,1,Fog,4
2012-12-14,33,19,5,28,18,3,96,88,79,30.11,29.95,29.74,10,6,0,10,4,,0.00,2,Fog,101
2012-12-15,35,32,30,33,32,29,99,94,82,29.73,29.59,29.50,10,4,1,14,6,18,0.25,8,Rain-Snow,35
2012-12-16,30,22,14,29,18,12,96,93,88,29.80,29.74,29.60,10,8,2,16,10,24,0.02,8,Snow,318
2012-12-17,21,19,17,20,18,16,96,95,94,29.79,29.72,29.66,10,4,0,7,1,,0.00,8,Fog-Snow,108
2012-12-18,27,24,21,27,23,20,96,95,91,29.78,29.67,29.61,5,3,2,8,4,,0.00,8,Snow,119
2012-12-19,28,19,10,27,17,8,96,88,74,30.03,29.92,29.78,10,8,1,10,4,,0.03,3,,246
2012-12-20,20,12,4,18,12,1,92,86,79,30.12,30.00,29.95,10,9,5,16,8,24,0.00,5,Snow,321
2012-12-21,10,2,-5,4,0,-8,89,82,73,30.28,30.20,30.12,10,10,10,9,4,,0.00,0,,283
2012-12-22,17,11,5,12,8,3,91,82,72,30.13,30.02,29.97,10,10,5,15,4,20,0.00,1,Snow,328
2012-12-23,14,10,6,10,7,4,89,81,70,30.13,30.08,30.01,10,10,10,10,6,,0.00,3,Snow,30
2012-12-24,14,5,-4,10,2,-9,88,80,66,30.29,30.13,30.01,10,8,0,12,6,,0.00,3,Snow,327
2012-12-25,3,-4,-11,-4,-10,-15,84,79,71,30.48,30.42,30.30,10,10,5,8,4,,0.00,0,Snow,295
2012-12-26,9,2,-6,1,-3,-10,89,79,68,30.39,30.29,30.22,10,10,10,5,0,,0.00,4,,13
2012-12-27,16,6,-5,13,7,-9,93,85,74,30.23,30.18,30.13,10,7,2,6,1,,0.00,8,Snow,75
2012-12-28,19,12,4,15,11,1,94,90,84,30.13,30.06,30.01,10,6,2,7,1,,0.00,7,Snow,316
2012-12-29,12,3,-6,10,3,-9,92,89,79,30.14,30.07,30.03,10,5,1,8,4,,0.00,5,Snow,257
2012-12-30,18,6,-7,11,1,-12,90,85,75,30.13,30.00,29.86,10,8,5,13,2,22,0.00,0,,165
2012-12-31,14,0,-14,10,-4,-19,85,74,66,30.25,30.17,30.01,10,10,5,14,8,24,0.00,1,Snow,299